sensor_id;sensor_type;location;lat;lon;timestamp;P1;durP1;ratioP1;P2;durP2;ratioP2
41887;SDS011;63122;52.424;13.458;2024-01-06T01:17:18;66.40;;;32.30;;
41887;SDS011;63122;52.424;13.458;2024-01-06T01:27:22;62.70;;;29.93;;
41887;SDS011;63122;52.424;13.458;2024-01-06T01:29:25;62.80;;;30.20;;
41887;SDS011;63122;52.424;13.458;2024-01-06T01:31:34;62.93;;;30.77;;
41887;SDS011;63122;52.424;13.458;2024-01-06T01:33:33;62.70;;;30.47;;
41887;SDS011;63122;52.424;13.458;2024-01-06T01:35:28;58.23;;;28.93;;
41887;SDS011;63122;52.424;13.458;2024-01-06T01:37:21;61.73;;;29.23;;
41887;SDS011;63122;52.424;13.458;2024-01-06T01:39:16;58.40;;;28.27;;
41887;SDS011;63122;52.424;13.458;2024-01-06T01:41:10;63.30;;;29.57;;
41887;SDS011;63122;52.424;13.458;2024-01-06T01:43:15;54.93;;;28.97;;
41887;SDS011;63122;52.424;13.458;2024-01-06T01:45:11;54.93;;;27.43;;
41887;SDS011;63122;52.424;13.458;2024-01-06T01:47:06;60.70;;;29.27;;
41887;SDS011;63122;52.424;13.458;2024-01-06T01:49:05;65.97;;;31.97;;
41887;SDS011;63122;52.424;13.458;2024-01-06T01:50:58;58.80;;;28.07;;
41887;SDS011;63122;52.424;13.458;2024-01-06T01:52:54;55.70;;;29.17;;
41887;SDS011;63122;52.424;13.458;2024-01-06T01:54:49;58.60;;;28.93;;
41887;SDS011;63122;52.424;13.458;2024-01-06T01:56:44;55.30;;;28.83;;
41887;SDS011;63122;52.424;13.458;2024-01-06T01:58:40;57.50;;;27.33;;
41887;SDS011;63122;52.424;13.458;2024-01-06T02:45:37;51.77;;;26.97;;
41887;SDS011;63122;52.424;13.458;2024-01-06T02:47:30;49.87;;;27.13;;
41887;SDS011;63122;52.424;13.458;2024-01-06T02:49:25;56.10;;;26.17;;
41887;SDS011;63122;52.424;13.458;2024-01-06T03:15:05;52.83;;;26.30;;
41887;SDS011;63122;52.424;13.458;2024-01-06T03:21:30;59.57;;;28.63;;
41887;SDS011;63122;52.424;13.458;2024-01-06T03:24:28;60.03;;;29.40;;
41887;SDS011;63122;52.424;13.458;2024-01-06T03:30:49;61.07;;;27.57;;
41887;SDS011;63122;52.424;13.458;2024-01-06T03:34:05;62.63;;;27.63;;
41887;SDS011;63122;52.424;13.458;2024-01-06T03:54:43;61.30;;;28.67;;
41887;SDS011;63122;52.424;13.458;2024-01-06T04:50:26;59.83;;;27.50;;
41887;SDS011;63122;52.424;13.458;2024-01-06T04:53:11;71.93;;;29.13;;
41887;SDS011;63122;52.424;13.458;2024-01-06T04:55:27;64.33;;;29.37;;
41887;SDS011;63122;52.424;13.458;2024-01-06T04:58:42;64.03;;;28.37;;
41887;SDS011;63122;52.424;13.458;2024-01-06T05:04:43;66.03;;;28.93;;
41887;SDS011;63122;52.424;13.458;2024-01-06T05:08:16;61.83;;;28.63;;
41887;SDS011;63122;52.424;13.458;2024-01-06T05:11:13;67.00;;;29.37;;
41887;SDS011;63122;52.424;13.458;2024-01-06T05:13:08;62.00;;;28.73;;
41887;SDS011;63122;52.424;13.458;2024-01-06T05:15:05;59.53;;;27.90;;
41887;SDS011;63122;52.424;13.458;2024-01-06T05:17:02;62.93;;;27.83;;
41887;SDS011;63122;52.424;13.458;2024-01-06T05:18:58;63.60;;;28.83;;
41887;SDS011;63122;52.424;13.458;2024-01-06T05:20:53;64.87;;;29.03;;
41887;SDS011;63122;52.424;13.458;2024-01-06T05:22:48;59.60;;;29.27;;
41887;SDS011;63122;52.424;13.458;2024-01-06T05:24:44;65.13;;;29.57;;
41887;SDS011;63122;52.424;13.458;2024-01-06T05:26:39;61.30;;;29.33;;
41887;SDS011;63122;52.424;13.458;2024-01-06T05:28:32;68.37;;;30.57;;
41887;SDS011;63122;52.424;13.458;2024-01-06T05:30:27;60.17;;;29.10;;
41887;SDS011;63122;52.424;13.458;2024-01-06T05:32:20;67.37;;;30.17;;
41887;SDS011;63122;52.424;13.458;2024-01-06T05:34:15;60.17;;;29.90;;
41887;SDS011;63122;52.424;13.458;2024-01-06T05:36:11;59.40;;;29.87;;
41887;SDS011;63122;52.424;13.458;2024-01-06T05:38:06;61.50;;;29.70;;
41887;SDS011;63122;52.424;13.458;2024-01-06T05:40:05;59.67;;;28.93;;
41887;SDS011;63122;52.424;13.458;2024-01-06T05:42:02;62.53;;;30.67;;
41887;SDS011;63122;52.424;13.458;2024-01-06T05:43:55;57.83;;;28.97;;
41887;SDS011;63122;52.424;13.458;2024-01-06T05:45:50;65.27;;;30.27;;
41887;SDS011;63122;52.424;13.458;2024-01-06T05:47:46;66.80;;;31.63;;
41887;SDS011;63122;52.424;13.458;2024-01-06T05:49:41;69.50;;;30.70;;
41887;SDS011;63122;52.424;13.458;2024-01-06T05:51:35;64.13;;;31.17;;
41887;SDS011;63122;52.424;13.458;2024-01-06T05:53:31;70.63;;;30.83;;
41887;SDS011;63122;52.424;13.458;2024-01-06T05:55:30;65.77;;;32.33;;
41887;SDS011;63122;52.424;13.458;2024-01-06T05:57:26;75.10;;;32.07;;
41887;SDS011;63122;52.424;13.458;2024-01-06T05:59:22;72.77;;;32.30;;
41887;SDS011;63122;52.424;13.458;2024-01-06T06:01:15;69.20;;;31.47;;
41887;SDS011;63122;52.424;13.458;2024-01-06T06:03:15;62.80;;;29.67;;
41887;SDS011;63122;52.424;13.458;2024-01-06T06:05:10;70.00;;;31.20;;
41887;SDS011;63122;52.424;13.458;2024-01-06T06:07:05;67.60;;;31.03;;
41887;SDS011;63122;52.424;13.458;2024-01-06T06:09:00;69.07;;;31.20;;
41887;SDS011;63122;52.424;13.458;2024-01-06T06:10:56;67.80;;;31.63;;
41887;SDS011;63122;52.424;13.458;2024-01-06T06:12:56;70.37;;;31.20;;
41887;SDS011;63122;52.424;13.458;2024-01-06T06:14:49;68.60;;;31.90;;
41887;SDS011;63122;52.424;13.458;2024-01-06T06:16:44;79.17;;;34.03;;
41887;SDS011;63122;52.424;13.458;2024-01-06T06:18:40;74.63;;;32.93;;
41887;SDS011;63122;52.424;13.458;2024-01-06T06:20:36;68.93;;;32.00;;
41887;SDS011;63122;52.424;13.458;2024-01-06T06:22:29;75.40;;;32.53;;
41887;SDS011;63122;52.424;13.458;2024-01-06T06:24:24;75.60;;;32.57;;
41887;SDS011;63122;52.424;13.458;2024-01-06T06:26:20;73.73;;;32.17;;
41887;SDS011;63122;52.424;13.458;2024-01-06T06:28:15;62.57;;;31.23;;
41887;SDS011;63122;52.424;13.458;2024-01-06T06:30:08;72.80;;;32.93;;
41887;SDS011;63122;52.424;13.458;2024-01-06T06:32:05;77.90;;;32.97;;
41887;SDS011;63122;52.424;13.458;2024-01-06T06:34:01;75.07;;;30.83;;
41887;SDS011;63122;52.424;13.458;2024-01-06T06:36:00;79.03;;;33.07;;
41887;SDS011;63122;52.424;13.458;2024-01-06T06:37:56;76.93;;;32.33;;
41887;SDS011;63122;52.424;13.458;2024-01-06T06:39:50;70.83;;;32.27;;
41887;SDS011;63122;52.424;13.458;2024-01-06T06:41:48;67.13;;;30.57;;
41887;SDS011;63122;52.424;13.458;2024-01-06T06:43:41;73.67;;;32.80;;
41887;SDS011;63122;52.424;13.458;2024-01-06T06:45:36;78.23;;;32.57;;
41887;SDS011;63122;52.424;13.458;2024-01-06T06:47:32;67.37;;;30.40;;
41887;SDS011;63122;52.424;13.458;2024-01-06T06:49:27;70.73;;;32.57;;
41887;SDS011;63122;52.424;13.458;2024-01-06T06:51:22;81.00;;;33.30;;
41887;SDS011;63122;52.424;13.458;2024-01-06T06:53:20;68.10;;;31.20;;
41887;SDS011;63122;52.424;13.458;2024-01-06T06:55:15;70.50;;;31.90;;
41887;SDS011;63122;52.424;13.458;2024-01-06T06:57:10;76.00;;;31.57;;
41887;SDS011;63122;52.424;13.458;2024-01-06T06:59:06;72.37;;;31.37;;
41887;SDS011;63122;52.424;13.458;2024-01-06T07:01:02;70.73;;;32.13;;
41887;SDS011;63122;52.424;13.458;2024-01-06T07:02:55;73.90;;;32.90;;
41887;SDS011;63122;52.424;13.458;2024-01-06T07:04:51;68.30;;;31.90;;
41887;SDS011;63122;52.424;13.458;2024-01-06T07:06:43;75.17;;;33.17;;
41887;SDS011;63122;52.424;13.458;2024-01-06T07:08:39;75.47;;;31.07;;
41887;SDS011;63122;52.424;13.458;2024-01-06T07:10:32;79.80;;;30.83;;
41887;SDS011;63122;52.424;13.458;2024-01-06T07:12:30;72.93;;;29.63;;
41887;SDS011;63122;52.424;13.458;2024-01-06T07:14:23;63.03;;;28.73;;
41887;SDS011;63122;52.424;13.458;2024-01-06T07:16:19;72.23;;;30.93;;
41887;SDS011;63122;52.424;13.458;2024-01-06T07:18:14;75.73;;;32.03;;
41887;SDS011;63122;52.424;13.458;2024-01-06T07:20:11;73.67;;;30.50;;
41887;SDS011;63122;52.424;13.458;2024-01-06T07:22:07;66.90;;;29.50;;
41887;SDS011;63122;52.424;13.458;2024-01-06T07:23:59;73.30;;;30.53;;
41887;SDS011;63122;52.424;13.458;2024-01-06T07:25:55;63.90;;;29.83;;
41887;SDS011;63122;52.424;13.458;2024-01-06T07:27:53;73.80;;;30.83;;
41887;SDS011;63122;52.424;13.458;2024-01-06T07:30:00;73.17;;;29.20;;
41887;SDS011;63122;52.424;13.458;2024-01-06T07:32:01;68.40;;;28.87;;
41887;SDS011;63122;52.424;13.458;2024-01-06T07:34:05;101.87;;;46.77;;
41887;SDS011;63122;52.424;13.458;2024-01-06T07:36:08;80.53;;;31.83;;
41887;SDS011;63122;52.424;13.458;2024-01-06T07:38:10;70.63;;;29.30;;
41887;SDS011;63122;52.424;13.458;2024-01-06T07:42:42;76.80;;;30.10;;
41887;SDS011;63122;52.424;13.458;2024-01-06T07:44:44;73.17;;;29.03;;
41887;SDS011;63122;52.424;13.458;2024-01-06T07:46:38;66.40;;;27.73;;
41887;SDS011;63122;52.424;13.458;2024-01-06T07:48:33;73.57;;;31.03;;
41887;SDS011;63122;52.424;13.458;2024-01-06T07:50:28;71.60;;;29.03;;
41887;SDS011;63122;52.424;13.458;2024-01-06T07:52:37;66.53;;;29.80;;
41887;SDS011;63122;52.424;13.458;2024-01-06T07:54:33;71.37;;;30.53;;
41887;SDS011;63122;52.424;13.458;2024-01-06T07:56:28;73.37;;;30.63;;
41887;SDS011;63122;52.424;13.458;2024-01-06T07:58:31;72.97;;;31.20;;
41887;SDS011;63122;52.424;13.458;2024-01-06T08:00:30;71.63;;;31.90;;
41887;SDS011;63122;52.424;13.458;2024-01-06T08:02:26;69.03;;;29.03;;
41887;SDS011;63122;52.424;13.458;2024-01-06T08:04:18;70.73;;;30.37;;
41887;SDS011;63122;52.424;13.458;2024-01-06T08:06:13;75.47;;;31.90;;
41887;SDS011;63122;52.424;13.458;2024-01-06T08:08:06;79.20;;;31.33;;
41887;SDS011;63122;52.424;13.458;2024-01-06T08:10:02;76.00;;;32.20;;
41887;SDS011;63122;52.424;13.458;2024-01-06T08:11:58;74.17;;;30.30;;
41887;SDS011;63122;52.424;13.458;2024-01-06T08:13:55;72.60;;;30.93;;
41887;SDS011;63122;52.424;13.458;2024-01-06T08:15:52;72.13;;;30.87;;
41887;SDS011;63122;52.424;13.458;2024-01-06T08:17:48;87.63;;;32.37;;
41887;SDS011;63122;52.424;13.458;2024-01-06T08:19:43;73.33;;;30.40;;
41887;SDS011;63122;52.424;13.458;2024-01-06T08:21:39;81.10;;;32.20;;
41887;SDS011;63122;52.424;13.458;2024-01-06T08:23:34;77.37;;;31.70;;
41887;SDS011;63122;52.424;13.458;2024-01-06T08:25:29;73.23;;;32.00;;
41887;SDS011;63122;52.424;13.458;2024-01-06T08:27:25;77.80;;;32.30;;
41887;SDS011;63122;52.424;13.458;2024-01-06T08:29:20;86.53;;;33.80;;
41887;SDS011;63122;52.424;13.458;2024-01-06T08:31:15;77.77;;;33.87;;
41887;SDS011;63122;52.424;13.458;2024-01-06T08:33:11;76.73;;;31.73;;
41887;SDS011;63122;52.424;13.458;2024-01-06T08:35:08;87.40;;;34.77;;
41887;SDS011;63122;52.424;13.458;2024-01-06T08:37:06;78.23;;;31.10;;
41887;SDS011;63122;52.424;13.458;2024-01-06T08:38:58;79.57;;;33.23;;
41887;SDS011;63122;52.424;13.458;2024-01-06T08:40:54;77.07;;;31.43;;
41887;SDS011;63122;52.424;13.458;2024-01-06T08:42:46;86.70;;;32.97;;
41887;SDS011;63122;52.424;13.458;2024-01-06T08:44:42;79.70;;;32.57;;
41887;SDS011;63122;52.424;13.458;2024-01-06T08:46:40;73.20;;;32.13;;
41887;SDS011;63122;52.424;13.458;2024-01-06T08:48:35;78.57;;;32.47;;
41887;SDS011;63122;52.424;13.458;2024-01-06T08:50:31;78.57;;;34.10;;
41887;SDS011;63122;52.424;13.458;2024-01-06T08:52:24;73.30;;;30.53;;
41887;SDS011;63122;52.424;13.458;2024-01-06T08:54:19;73.57;;;32.10;;
41887;SDS011;63122;52.424;13.458;2024-01-06T08:56:15;76.30;;;29.83;;
41887;SDS011;63122;52.424;13.458;2024-01-06T08:58:10;74.00;;;32.03;;
41887;SDS011;63122;52.424;13.458;2024-01-06T09:00:10;75.13;;;32.70;;
41887;SDS011;63122;52.424;13.458;2024-01-06T09:02:10;79.20;;;32.03;;
41887;SDS011;63122;52.424;13.458;2024-01-06T09:04:07;77.60;;;32.83;;
41887;SDS011;63122;52.424;13.458;2024-01-06T09:06:03;79.20;;;32.97;;
41887;SDS011;63122;52.424;13.458;2024-01-06T09:08:03;76.87;;;32.10;;
41887;SDS011;63122;52.424;13.458;2024-01-06T09:10:00;78.33;;;33.20;;
41887;SDS011;63122;52.424;13.458;2024-01-06T09:11:56;77.33;;;32.90;;
41887;SDS011;63122;52.424;13.458;2024-01-06T09:13:52;70.43;;;31.10;;
41887;SDS011;63122;52.424;13.458;2024-01-06T09:15:48;68.67;;;31.03;;
41887;SDS011;63122;52.424;13.458;2024-01-06T09:17:48;73.97;;;30.80;;
41887;SDS011;63122;52.424;13.458;2024-01-06T09:19:50;80.33;;;31.90;;
41887;SDS011;63122;52.424;13.458;2024-01-06T09:21:46;68.00;;;30.33;;
41887;SDS011;63122;52.424;13.458;2024-01-06T09:23:45;72.43;;;31.43;;
41887;SDS011;63122;52.424;13.458;2024-01-06T09:25:41;75.87;;;30.67;;
41887;SDS011;63122;52.424;13.458;2024-01-06T09:27:39;77.33;;;32.20;;
41887;SDS011;63122;52.424;13.458;2024-01-06T09:29:32;79.43;;;32.07;;
41887;SDS011;63122;52.424;13.458;2024-01-06T09:34:20;70.17;;;30.13;;
41887;SDS011;63122;52.424;13.458;2024-01-06T09:44:48;78.40;;;32.80;;
41887;SDS011;63122;52.424;13.458;2024-01-06T09:46:59;72.77;;;30.67;;
41887;SDS011;63122;52.424;13.458;2024-01-06T09:49:02;66.97;;;29.97;;
41887;SDS011;63122;52.424;13.458;2024-01-06T09:50:59;73.00;;;31.23;;
41887;SDS011;63122;52.424;13.458;2024-01-06T10:00:00;73.77;;;30.93;;
41887;SDS011;63122;52.424;13.458;2024-01-06T10:04:47;67.57;;;30.30;;
41887;SDS011;63122;52.424;13.458;2024-01-06T10:07:34;70.67;;;30.97;;
41887;SDS011;63122;52.424;13.458;2024-01-06T10:11:53;71.00;;;31.23;;
41887;SDS011;63122;52.424;13.458;2024-01-06T10:23:58;71.67;;;32.10;;
41887;SDS011;63122;52.424;13.458;2024-01-06T10:25:56;65.20;;;30.17;;
41887;SDS011;63122;52.424;13.458;2024-01-06T10:27:57;69.30;;;31.53;;
41887;SDS011;63122;52.424;13.458;2024-01-06T10:29:55;64.00;;;30.17;;
41887;SDS011;63122;52.424;13.458;2024-01-06T10:31:52;70.20;;;31.00;;
41887;SDS011;63122;52.424;13.458;2024-01-06T10:33:53;63.83;;;30.60;;
41887;SDS011;63122;52.424;13.458;2024-01-06T10:35:50;66.53;;;31.47;;
41887;SDS011;63122;52.424;13.458;2024-01-06T10:37:49;67.43;;;31.27;;
41887;SDS011;63122;52.424;13.458;2024-01-06T10:39:46;65.07;;;32.13;;
41887;SDS011;63122;52.424;13.458;2024-01-06T10:41:42;63.70;;;31.63;;
41887;SDS011;63122;52.424;13.458;2024-01-06T10:43:40;60.83;;;31.20;;
41887;SDS011;63122;52.424;13.458;2024-01-06T10:45:36;57.80;;;30.03;;
41887;SDS011;63122;52.424;13.458;2024-01-06T10:47:31;65.10;;;31.57;;
41887;SDS011;63122;52.424;13.458;2024-01-06T10:49:27;65.10;;;31.73;;
41887;SDS011;63122;52.424;13.458;2024-01-06T10:51:25;68.20;;;31.77;;
41887;SDS011;63122;52.424;13.458;2024-01-06T10:53:25;66.70;;;31.47;;
41887;SDS011;63122;52.424;13.458;2024-01-06T10:55:23;61.30;;;31.13;;
41887;SDS011;63122;52.424;13.458;2024-01-06T10:57:18;60.43;;;30.13;;
41887;SDS011;63122;52.424;13.458;2024-01-06T10:59:15;60.27;;;29.97;;
41887;SDS011;63122;52.424;13.458;2024-01-06T11:01:11;57.33;;;28.90;;
41887;SDS011;63122;52.424;13.458;2024-01-06T11:03:12;54.03;;;28.37;;
41887;SDS011;63122;52.424;13.458;2024-01-06T11:05:12;59.67;;;28.83;;
41887;SDS011;63122;52.424;13.458;2024-01-06T11:07:08;57.93;;;29.60;;
41887;SDS011;63122;52.424;13.458;2024-01-06T11:09:06;55.40;;;28.30;;
41887;SDS011;63122;52.424;13.458;2024-01-06T11:11:04;57.30;;;29.80;;
41887;SDS011;63122;52.424;13.458;2024-01-06T11:13:07;61.97;;;31.83;;
41887;SDS011;63122;52.424;13.458;2024-01-06T11:15:05;57.97;;;29.23;;
41887;SDS011;63122;52.424;13.458;2024-01-06T11:17:03;51.83;;;27.87;;
41887;SDS011;63122;52.424;13.458;2024-01-06T11:18:56;52.20;;;27.70;;
41887;SDS011;63122;52.424;13.458;2024-01-06T11:23:43;76.77;;;38.90;;
41887;SDS011;63122;52.424;13.458;2024-01-06T11:25:36;58.90;;;29.13;;
41887;SDS011;63122;52.424;13.458;2024-01-06T11:27:36;55.30;;;28.67;;
41887;SDS011;63122;52.424;13.458;2024-01-06T11:29:31;57.23;;;28.60;;
41887;SDS011;63122;52.424;13.458;2024-01-06T11:31:24;55.80;;;28.60;;
41887;SDS011;63122;52.424;13.458;2024-01-06T11:33:25;50.10;;;27.27;;
41887;SDS011;63122;52.424;13.458;2024-01-06T11:35:21;51.80;;;27.60;;
41887;SDS011;63122;52.424;13.458;2024-01-06T11:37:20;57.10;;;27.17;;
41887;SDS011;63122;52.424;13.458;2024-01-06T11:41:47;52.20;;;27.73;;
41887;SDS011;63122;52.424;13.458;2024-01-06T11:43:43;52.47;;;27.70;;
41887;SDS011;63122;52.424;13.458;2024-01-06T11:45:40;55.20;;;27.43;;
41887;SDS011;63122;52.424;13.458;2024-01-06T11:47:36;60.10;;;29.77;;
41887;SDS011;63122;52.424;13.458;2024-01-06T11:49:34;59.77;;;30.27;;
41887;SDS011;63122;52.424;13.458;2024-01-06T11:51:30;54.53;;;28.77;;
41887;SDS011;63122;52.424;13.458;2024-01-06T11:53:29;48.20;;;27.23;;
41887;SDS011;63122;52.424;13.458;2024-01-06T11:55:24;58.73;;;29.33;;
41887;SDS011;63122;52.424;13.458;2024-01-06T11:57:20;53.10;;;28.77;;
41887;SDS011;63122;52.424;13.458;2024-01-06T11:59:13;54.17;;;29.03;;
41887;SDS011;63122;52.424;13.458;2024-01-06T12:01:08;55.83;;;29.83;;
41887;SDS011;63122;52.424;13.458;2024-01-06T12:03:04;47.23;;;27.73;;
41887;SDS011;63122;52.424;13.458;2024-01-06T12:05:00;54.17;;;28.50;;
41887;SDS011;63122;52.424;13.458;2024-01-06T12:07:04;47.40;;;26.37;;
41887;SDS011;63122;52.424;13.458;2024-01-06T12:09:05;48.27;;;26.63;;
41887;SDS011;63122;52.424;13.458;2024-01-06T12:11:01;53.73;;;29.70;;
41887;SDS011;63122;52.424;13.458;2024-01-06T12:12:57;49.47;;;27.83;;
41887;SDS011;63122;52.424;13.458;2024-01-06T12:14:51;50.53;;;26.90;;
41887;SDS011;63122;52.424;13.458;2024-01-06T12:16:47;50.97;;;26.13;;
41887;SDS011;63122;52.424;13.458;2024-01-06T12:18:40;50.97;;;27.37;;
41887;SDS011;63122;52.424;13.458;2024-01-06T12:20:36;46.07;;;26.23;;
41887;SDS011;63122;52.424;13.458;2024-01-06T12:22:28;50.57;;;27.07;;
41887;SDS011;63122;52.424;13.458;2024-01-06T12:24:26;46.30;;;25.63;;
41887;SDS011;63122;52.424;13.458;2024-01-06T12:26:20;56.60;;;30.70;;
41887;SDS011;63122;52.424;13.458;2024-01-06T12:28:16;57.23;;;29.87;;
41887;SDS011;63122;52.424;13.458;2024-01-06T12:30:12;65.97;;;32.23;;
41887;SDS011;63122;52.424;13.458;2024-01-06T12:32:11;48.13;;;26.73;;
41887;SDS011;63122;52.424;13.458;2024-01-06T12:34:07;50.00;;;25.87;;
41887;SDS011;63122;52.424;13.458;2024-01-06T12:36:03;50.50;;;27.23;;
41887;SDS011;63122;52.424;13.458;2024-01-06T12:38:12;45.87;;;25.63;;
41887;SDS011;63122;52.424;13.458;2024-01-06T12:40:12;52.20;;;27.50;;
41887;SDS011;63122;52.424;13.458;2024-01-06T12:42:06;52.20;;;27.33;;
41887;SDS011;63122;52.424;13.458;2024-01-06T12:44:01;45.27;;;25.37;;
41887;SDS011;63122;52.424;13.458;2024-01-06T12:45:57;47.57;;;25.07;;
41887;SDS011;63122;52.424;13.458;2024-01-06T12:47:52;49.00;;;27.00;;
41887;SDS011;63122;52.424;13.458;2024-01-06T12:49:48;45.30;;;25.67;;
41887;SDS011;63122;52.424;13.458;2024-01-06T12:51:43;47.60;;;26.50;;
41887;SDS011;63122;52.424;13.458;2024-01-06T12:53:36;45.77;;;25.63;;
41887;SDS011;63122;52.424;13.458;2024-01-06T12:55:34;46.27;;;25.90;;
41887;SDS011;63122;52.424;13.458;2024-01-06T12:57:30;47.70;;;25.93;;
41887;SDS011;63122;52.424;13.458;2024-01-06T12:59:23;50.40;;;25.93;;
41887;SDS011;63122;52.424;13.458;2024-01-06T13:01:19;52.83;;;26.43;;
41887;SDS011;63122;52.424;13.458;2024-01-06T13:03:12;51.57;;;26.40;;
41887;SDS011;63122;52.424;13.458;2024-01-06T13:05:08;44.10;;;25.30;;
41887;SDS011;63122;52.424;13.458;2024-01-06T13:07:04;44.90;;;24.83;;
41887;SDS011;63122;52.424;13.458;2024-01-06T13:08:58;45.83;;;24.37;;
41887;SDS011;63122;52.424;13.458;2024-01-06T13:10:57;49.23;;;25.40;;
41887;SDS011;63122;52.424;13.458;2024-01-06T13:12:50;44.93;;;24.40;;
41887;SDS011;63122;52.424;13.458;2024-01-06T13:14:45;48.00;;;23.97;;
41887;SDS011;63122;52.424;13.458;2024-01-06T13:16:43;41.93;;;22.83;;
41887;SDS011;63122;52.424;13.458;2024-01-06T13:18:38;42.90;;;23.40;;
41887;SDS011;63122;52.424;13.458;2024-01-06T13:20:47;47.20;;;23.83;;
41887;SDS011;63122;52.424;13.458;2024-01-06T13:22:43;42.90;;;23.60;;
41887;SDS011;63122;52.424;13.458;2024-01-06T13:24:39;45.17;;;22.80;;
41887;SDS011;63122;52.424;13.458;2024-01-06T13:26:37;44.00;;;24.90;;
41887;SDS011;63122;52.424;13.458;2024-01-06T13:28:33;50.47;;;26.00;;
41887;SDS011;63122;52.424;13.458;2024-01-06T13:30:26;42.37;;;23.93;;
41887;SDS011;63122;52.424;13.458;2024-01-06T13:32:22;46.77;;;24.67;;
41887;SDS011;63122;52.424;13.458;2024-01-06T13:34:15;59.23;;;31.77;;
41887;SDS011;63122;52.424;13.458;2024-01-06T13:36:11;63.63;;;32.40;;
41887;SDS011;63122;52.424;13.458;2024-01-06T13:38:10;49.43;;;26.27;;
41887;SDS011;63122;52.424;13.458;2024-01-06T13:40:06;51.27;;;25.20;;
41887;SDS011;63122;52.424;13.458;2024-01-06T13:42:05;44.33;;;24.07;;
41887;SDS011;63122;52.424;13.458;2024-01-06T13:44:01;46.57;;;24.07;;
41887;SDS011;63122;52.424;13.458;2024-01-06T13:45:54;46.80;;;24.50;;
41887;SDS011;63122;52.424;13.458;2024-01-06T13:47:50;40.37;;;22.87;;
41887;SDS011;63122;52.424;13.458;2024-01-06T13:49:44;45.83;;;24.73;;
41887;SDS011;63122;52.424;13.458;2024-01-06T13:51:40;45.23;;;23.57;;
41887;SDS011;63122;52.424;13.458;2024-01-06T13:53:35;45.13;;;23.50;;
41887;SDS011;63122;52.424;13.458;2024-01-06T13:55:31;41.80;;;23.50;;
41887;SDS011;63122;52.424;13.458;2024-01-06T13:57:30;44.77;;;23.63;;
41887;SDS011;63122;52.424;13.458;2024-01-06T13:59:24;43.63;;;22.67;;
41887;SDS011;63122;52.424;13.458;2024-01-06T14:01:19;42.70;;;21.17;;
41887;SDS011;63122;52.424;13.458;2024-01-06T14:03:16;44.07;;;21.90;;
41887;SDS011;63122;52.424;13.458;2024-01-06T14:05:11;44.87;;;22.87;;
41887;SDS011;63122;52.424;13.458;2024-01-06T14:07:05;41.70;;;23.00;;
41887;SDS011;63122;52.424;13.458;2024-01-06T14:09:03;41.93;;;23.13;;
41887;SDS011;63122;52.424;13.458;2024-01-06T14:10:59;44.67;;;22.53;;
41887;SDS011;63122;52.424;13.458;2024-01-06T14:12:54;36.67;;;21.13;;
41887;SDS011;63122;52.424;13.458;2024-01-06T14:14:50;43.77;;;23.63;;
41887;SDS011;63122;52.424;13.458;2024-01-06T14:16:45;42.77;;;23.43;;
41887;SDS011;63122;52.424;13.458;2024-01-06T14:18:42;44.57;;;23.70;;
41887;SDS011;63122;52.424;13.458;2024-01-06T14:20:38;40.10;;;22.10;;
41887;SDS011;63122;52.424;13.458;2024-01-06T14:22:33;42.97;;;22.47;;
41887;SDS011;63122;52.424;13.458;2024-01-06T14:24:29;43.70;;;23.53;;
41887;SDS011;63122;52.424;13.458;2024-01-06T14:26:24;45.80;;;22.67;;
41887;SDS011;63122;52.424;13.458;2024-01-06T14:28:22;41.83;;;23.17;;
41887;SDS011;63122;52.424;13.458;2024-01-06T14:30:18;43.67;;;23.80;;
41887;SDS011;63122;52.424;13.458;2024-01-06T14:32:14;41.73;;;23.07;;
41887;SDS011;63122;52.424;13.458;2024-01-06T14:34:10;42.33;;;22.53;;
41887;SDS011;63122;52.424;13.458;2024-01-06T14:36:07;43.50;;;22.60;;
41887;SDS011;63122;52.424;13.458;2024-01-06T14:38:03;45.73;;;23.53;;
41887;SDS011;63122;52.424;13.458;2024-01-06T14:39:58;43.43;;;23.33;;
41887;SDS011;63122;52.424;13.458;2024-01-06T14:41:58;44.47;;;22.67;;
41887;SDS011;63122;52.424;13.458;2024-01-06T14:43:54;44.00;;;23.37;;
41887;SDS011;63122;52.424;13.458;2024-01-06T14:45:50;41.00;;;21.93;;
41887;SDS011;63122;52.424;13.458;2024-01-06T14:47:45;44.43;;;23.03;;
41887;SDS011;63122;52.424;13.458;2024-01-06T14:49:43;45.03;;;23.37;;
41887;SDS011;63122;52.424;13.458;2024-01-06T14:51:39;43.97;;;23.37;;
41887;SDS011;63122;52.424;13.458;2024-01-06T14:53:36;44.90;;;22.50;;
41887;SDS011;63122;52.424;13.458;2024-01-06T14:55:32;43.77;;;22.17;;
41887;SDS011;63122;52.424;13.458;2024-01-06T14:57:27;44.43;;;23.60;;
41887;SDS011;63122;52.424;13.458;2024-01-06T14:59:26;55.90;;;25.93;;
41887;SDS011;63122;52.424;13.458;2024-01-06T15:01:22;41.80;;;22.73;;
41887;SDS011;63122;52.424;13.458;2024-01-06T15:03:15;42.00;;;22.30;;
41887;SDS011;63122;52.424;13.458;2024-01-06T15:05:17;41.50;;;22.57;;
41887;SDS011;63122;52.424;13.458;2024-01-06T15:08:14;43.03;;;21.30;;
41887;SDS011;63122;52.424;13.458;2024-01-06T15:10:19;44.80;;;23.50;;
41887;SDS011;63122;52.424;13.458;2024-01-06T15:12:23;34.97;;;20.27;;
41887;SDS011;63122;52.424;13.458;2024-01-06T15:15:01;35.43;;;20.13;;
41887;SDS011;63122;52.424;13.458;2024-01-06T15:17:37;38.77;;;20.57;;
41887;SDS011;63122;52.424;13.458;2024-01-06T15:19:51;36.10;;;18.90;;
41887;SDS011;63122;52.424;13.458;2024-01-06T15:22:02;36.57;;;20.37;;
41887;SDS011;63122;52.424;13.458;2024-01-06T15:24:43;36.87;;;18.60;;
41887;SDS011;63122;52.424;13.458;2024-01-06T15:27:02;37.50;;;18.67;;
41887;SDS011;63122;52.424;13.458;2024-01-06T15:29:53;40.77;;;19.00;;
41887;SDS011;63122;52.424;13.458;2024-01-06T15:32:07;32.33;;;18.50;;
41887;SDS011;63122;52.424;13.458;2024-01-06T15:34:02;32.37;;;18.03;;
41887;SDS011;63122;52.424;13.458;2024-01-06T15:35:58;33.63;;;17.70;;
41887;SDS011;63122;52.424;13.458;2024-01-06T15:37:53;31.80;;;17.17;;
41887;SDS011;63122;52.424;13.458;2024-01-06T15:39:49;29.93;;;15.73;;
41887;SDS011;63122;52.424;13.458;2024-01-06T15:41:46;34.00;;;16.40;;
41887;SDS011;63122;52.424;13.458;2024-01-06T15:44:17;25.67;;;15.00;;
41887;SDS011;63122;52.424;13.458;2024-01-06T15:51:20;27.37;;;14.87;;
41887;SDS011;63122;52.424;13.458;2024-01-06T15:53:17;28.37;;;15.17;;
41887;SDS011;63122;52.424;13.458;2024-01-06T15:55:11;31.73;;;14.97;;
41887;SDS011;63122;52.424;13.458;2024-01-06T15:57:11;26.23;;;13.90;;
41887;SDS011;63122;52.424;13.458;2024-01-06T15:59:04;27.63;;;15.00;;
41887;SDS011;63122;52.424;13.458;2024-01-06T16:00:59;29.43;;;13.77;;
41887;SDS011;63122;52.424;13.458;2024-01-06T16:02:56;28.77;;;14.47;;
41887;SDS011;63122;52.424;13.458;2024-01-06T16:04:52;26.40;;;13.57;;
41887;SDS011;63122;52.424;13.458;2024-01-06T16:06:47;28.47;;;14.53;;
41887;SDS011;63122;52.424;13.458;2024-01-06T16:08:45;27.73;;;13.20;;
41887;SDS011;63122;52.424;13.458;2024-01-06T16:10:40;26.37;;;13.60;;